Time;durP1;ratioP1;P1;durP2;ratioP2;P2;SDS_P1;SDS_P2;PMS_P1;PMS_P2;Temp;Humidity;BMP_temperature;BMP_pressure;BME280_temperature;BME280_humidity;BME280_pressure;Samples;Min_cycle;Max_cycle;Signal;HPM_P1;HPM_P2
2022/01/26 00:06:43;;;;;;;138.37;17.23;;;;;;;;;;5022769;28;20305;-67
2022/01/26 00:09:10;;;;;;;87.40;11.20;;;;;;;;;;5024359;28;20236;-67
2022/01/26 00:11:36;;;;;;;107.63;13.90;;;;;;;;;;5017133;28;20672;-67
2022/01/26 00:14:03;;;;;;;84.07;10.90;;;;;;;;;;5028039;28;20180;-67
2022/01/26 00:16:39;;;;;;;130.07;16.43;;;;;;;;;;5023841;28;20289;-67
2022/01/26 00:19:06;;;;;;;122.07;15.23;;;;;;;;;;5015576;28;20188;-68
2022/01/26 00:21:37;;;;;;;94.33;12.03;;;;;;;;;;5020218;28;20207;-67
2022/01/26 00:29:10;;;;;;;118.07;15.10;;;;;;;;;;5021659;28;20196;-68
2022/01/26 00:39:59;;;;;;;155.33;19.23;;;;;;;;;;5024235;28;20243;-67
2022/01/26 00:42:27;;;;;;;64.30;8.50;;;;;;;;;;5017356;28;20181;-67
2022/01/26 00:44:53;;;;;;;144.70;18.03;;;;;;;;;;5025666;28;20204;-67
2022/01/26 00:47:19;;;;;;;83.60;10.93;;;;;;;;;;5026922;28;20184;-67
2022/01/26 00:49:45;;;;;;;129.23;16.43;;;;;;;;;;5013416;28;20199;-67
2022/01/26 00:52:14;;;;;;;107.20;13.77;;;;;;;;;;5023271;28;20176;-67
2022/01/26 00:54:40;;;;;;;115.80;14.90;;;;;;;;;;5021374;28;20583;-67
2022/01/26 00:57:06;;;;;;;100.57;12.87;;;;;;;;;;5018626;28;20228;-68
2022/01/26 00:59:32;;;;;;;116.87;14.60;;;;;;;;;;5021650;28;20194;-67
2022/01/26 01:01:58;;;;;;;109.60;13.70;;;;;;;;;;5020831;28;20282;-67
2022/01/26 01:04:24;;;;;;;149.23;18.50;;;;;;;;;;5013780;28;20264;-67
2022/01/26 01:06:56;;;;;;;103.23;13.03;;;;;;;;;;5021591;28;20211;-67
2022/01/26 01:09:24;;;;;;;76.60;9.90;;;;;;;;;;5023272;28;20761;-69
2022/01/26 01:11:55;;;;;;;75.37;9.93;;;;;;;;;;5019296;28;20219;-67
2022/01/26 01:14:22;;;;;;;90.00;11.70;;;;;;;;;;5021588;28;20203;-67
2022/01/26 01:16:48;;;;;;;99.20;12.73;;;;;;;;;;5021928;28;20622;-67
2022/01/26 01:22:23;;;;;;;102.43;13.13;;;;;;;;;;5022197;28;20616;-67
2022/01/26 01:27:59;;;;;;;92.93;12.07;;;;;;;;;;5017525;28;20696;-68
2022/01/26 01:30:32;;;;;;;121.23;14.93;;;;;;;;;;5016683;28;20210;-67
2022/01/26 01:35:31;;;;;;;83.67;10.97;;;;;;;;;;5019439;28;20318;-67
2022/01/26 01:38:06;;;;;;;107.40;13.73;;;;;;;;;;5017080;28;20180;-67
2022/01/26 01:40:32;;;;;;;119.43;15.03;;;;;;;;;;5012239;28;21278;-67
2022/01/26 01:42:58;;;;;;;89.27;11.80;;;;;;;;;;5020671;28;20189;-67
2022/01/26 01:45:34;;;;;;;89.43;11.57;;;;;;;;;;5017973;28;20212;-67
2022/01/26 01:48:00;;;;;;;87.40;11.40;;;;;;;;;;5018688;28;20243;-67
2022/01/26 01:50:26;;;;;;;94.73;12.30;;;;;;;;;;5019411;28;20239;-67
2022/01/26 01:52:59;;;;;;;116.60;14.53;;;;;;;;;;5023580;28;20184;-67
2022/01/26 01:55:27;;;;;;;96.13;12.37;;;;;;;;;;5030254;28;20200;-67
2022/01/26 01:57:54;;;;;;;64.00;8.43;;;;;;;;;;5019765;28;20180;-67
2022/01/26 02:00:20;;;;;;;108.50;13.93;;;;;;;;;;5021553;28;20268;-67
2022/01/26 02:02:45;;;;;;;122.03;15.50;;;;;;;;;;5018614;28;20280;-68
2022/01/26 02:05:11;;;;;;;148.67;18.33;;;;;;;;;;5019983;28;20219;-67
2022/01/26 02:07:37;;;;;;;76.27;10.00;;;;;;;;;;5025316;28;20188;-68
2022/01/26 02:10:04;;;;;;;146.43;18.10;;;;;;;;;;5015460;28;20295;-67
2022/01/26 02:12:32;;;;;;;92.87;11.87;;;;;;;;;;5012551;28;20278;-67
2022/01/26 02:15:07;;;;;;;64.67;8.40;;;;;;;;;;5033182;28;20674;-67
2022/01/26 02:20:33;;;;;;;92.57;11.73;;;;;;;;;;5016921;28;20253;-67
2022/01/26 02:55:40;;;;;;;134.43;16.60;;;;;;;;;;5016145;28;20703;-67
2022/01/26 03:03:42;;;;;;;58.33;7.83;;;;;;;;;;5021274;28;20246;-67
2022/01/26 03:06:16;;;;;;;45.97;6.27;;;;;;;;;;5016989;28;20204;-67
2022/01/26 03:08:49;;;;;;;88.97;11.63;;;;;;;;;;5018253;28;20547;-67
2022/01/26 03:11:16;;;;;;;50.10;6.90;;;;;;;;;;5017288;28;20230;-67
2022/01/26 03:13:48;;;;;;;61.60;8.23;;;;;;;;;;5023059;28;20199;-67
2022/01/26 03:16:27;;;;;;;80.93;15.40;;;;;;;;;;5028513;22;20320;-68
2022/01/26 03:19:02;;;;;;;89.73;16.30;;;;;;;;;;5003066;28;20177;-69
2022/01/26 03:21:37;;;;;;;76.67;14.53;;;;;;;;;;4998933;28;20591;-70
2022/01/26 03:32:43;;;;;;;89.40;14.33;;;;;;;;;;5001874;28;20293;-69
2022/01/26 03:34:56;;;;;;;96.97;16.80;;;;;;;;;;5001398;28;20275;-69
2022/01/26 03:37:26;;;;;;;96.27;15.50;;;;;;;;;;4999914;28;20205;-69
2022/01/26 03:39:53;;;;;;;94.90;16.90;;;;;;;;;;5004153;28;20638;-69
2022/01/26 03:42:19;;;;;;;75.27;14.63;;;;;;;;;;5004380;28;20257;-69
2022/01/26 03:44:45;;;;;;;88.73;16.20;;;;;;;;;;5002410;28;20181;-69
2022/01/26 03:47:11;;;;;;;93.43;16.90;;;;;;;;;;5001841;28;20208;-69
2022/01/26 03:49:38;;;;;;;96.60;16.73;;;;;;;;;;5014100;28;20185;-69
2022/01/26 03:52:04;;;;;;;71.07;14.53;;;;;;;;;;5005666;28;20208;-69
2022/01/26 03:54:30;;;;;;;75.90;14.80;;;;;;;;;;5004575;28;20646;-69
2022/01/26 03:56:56;;;;;;;81.40;14.17;;;;;;;;;;5002202;28;20295;-69
2022/01/26 03:59:22;;;;;;;68.37;12.53;;;;;;;;;;4999957;28;20208;-69
2022/01/26 04:01:48;;;;;;;107.60;17.10;;;;;;;;;;5001109;28;22780;-69
2022/01/26 04:04:14;;;;;;;106.53;17.20;;;;;;;;;;4995249;28;20195;-69
2022/01/26 04:06:40;;;;;;;81.43;14.37;;;;;;;;;;5001384;28;20337;-69
2022/01/26 04:09:08;;;;;;;89.47;15.40;;;;;;;;;;5016958;28;20264;-69
2022/01/26 04:11:39;;;;;;;68.00;13.60;;;;;;;;;;4992557;28;20304;-69
2022/01/26 04:14:08;;;;;;;93.23;16.60;;;;;;;;;;5003620;28;20235;-69
2022/01/26 04:16:35;;;;;;;90.97;16.23;;;;;;;;;;4999463;28;20232;-69
2022/01/26 04:19:01;;;;;;;74.67;13.20;;;;;;;;;;5003718;28;20773;-69
2022/01/26 04:21:50;;;;;;;57.27;12.03;;;;;;;;;;5001909;28;20280;-69
2022/01/26 04:24:21;;;;;;;75.10;14.43;;;;;;;;;;5002303;28;20551;-69
2022/01/26 04:27:02;;;;;;;69.53;13.97;;;;;;;;;;5001777;28;20512;-69
2022/01/26 04:29:31;;;;;;;71.13;13.77;;;;;;;;;;5000581;28;20185;-69
2022/01/26 04:31:58;;;;;;;91.17;16.27;;;;;;;;;;5003429;28;20216;-69
2022/01/26 04:34:24;;;;;;;120.10;20.13;;;;;;;;;;5000554;28;20181;-69
2022/01/26 04:39:26;;;;;;;97.47;17.20;;;;;;;;;;5000039;28;20216;-69
2022/01/26 04:41:57;;;;;;;94.70;16.40;;;;;;;;;;5000692;28;20251;-69
2022/01/26 04:44:26;;;;;;;90.60;14.93;;;;;;;;;;5004239;28;20661;-69
2022/01/26 04:46:52;;;;;;;88.23;15.97;;;;;;;;;;5004168;28;20292;-69
2022/01/26 04:49:18;;;;;;;80.03;14.67;;;;;;;;;;4999139;28;20284;-69
2022/01/26 04:51:45;;;;;;;59.77;12.47;;;;;;;;;;5002026;28;20300;-69
2022/01/26 04:54:11;;;;;;;65.00;11.60;;;;;;;;;;5003163;28;20185;-69
2022/01/26 04:56:37;;;;;;;49.47;10.67;;;;;;;;;;5016506;28;20674;-69
2022/01/26 04:59:03;;;;;;;74.30;13.93;;;;;;;;;;5000058;28;20206;-70
2022/01/26 05:01:29;;;;;;;59.63;12.43;;;;;;;;;;4998194;28;20195;-69
2022/01/26 05:03:55;;;;;;;93.27;16.30;;;;;;;;;;4997676;28;20237;-69
2022/01/26 05:06:21;;;;;;;81.57;15.23;;;;;;;;;;5015052;28;20205;-70
2022/01/26 05:08:47;;;;;;;118.43;19.63;;;;;;;;;;4998160;28;20538;-70
2022/01/26 05:11:19;;;;;;;70.80;13.63;;;;;;;;;;4996802;28;20216;-69
2022/01/26 05:13:45;;;;;;;116.27;19.40;;;;;;;;;;5003506;28;20663;-69
2022/01/26 05:16:11;;;;;;;88.47;16.10;;;;;;;;;;5000249;28;20259;-70
2022/01/26 05:18:37;;;;;;;110.57;18.93;;;;;;;;;;4999701;28;20185;-70
2022/01/26 05:21:03;;;;;;;105.13;16.90;;;;;;;;;;4999006;28;20534;-69
2022/01/26 05:23:29;;;;;;;92.80;16.33;;;;;;;;;;4998762;28;20197;-69
2022/01/26 05:25:55;;;;;;;82.47;15.13;;;;;;;;;;4998311;28;20266;-69
2022/01/26 05:28:21;;;;;;;65.63;12.83;;;;;;;;;;5001838;28;20181;-69
2022/01/26 05:30:47;;;;;;;90.33;14.47;;;;;;;;;;4999351;28;20208;-69
2022/01/26 05:33:13;;;;;;;145.90;22.07;;;;;;;;;;4992657;28;20243;-69
2022/01/26 05:35:42;;;;;;;71.63;13.97;;;;;;;;;;5014725;28;20220;-69
2022/01/26 05:38:07;;;;;;;87.93;15.93;;;;;;;;;;5000281;28;20196;-69
2022/01/26 05:40:33;;;;;;;76.20;14.37;;;;;;;;;;5001534;28;20323;-69
2022/01/26 05:42:59;;;;;;;68.87;13.57;;;;;;;;;;5000632;28;20192;-70
2022/01/26 05:45:31;;;;;;;58.77;12.13;;;;;;;;;;5004011;28;20209;-69
2022/01/26 05:47:57;;;;;;;84.50;15.03;;;;;;;;;;4999233;28;20185;-69
2022/01/26 05:50:23;;;;;;;159.47;24.50;;;;;;;;;;5011326;28;20325;-70
2022/01/26 05:52:50;;;;;;;62.63;12.23;;;;;;;;;;5004502;28;20800;-69
2022/01/26 05:55:16;;;;;;;102.87;17.73;;;;;;;;;;4999391;28;20837;-70
2022/01/26 05:57:42;;;;;;;69.13;13.67;;;;;;;;;;5002608;28;20646;-69
2022/01/26 06:00:08;;;;;;;93.50;16.63;;;;;;;;;;4997971;28;20196;-69
2022/01/26 06:02:34;;;;;;;81.63;15.20;;;;;;;;;;4996680;28;20267;-69
2022/01/26 06:05:00;;;;;;;84.43;15.13;;;;;;;;;;5000372;28;20335;-69
2022/01/26 06:07:26;;;;;;;87.73;15.53;;;;;;;;;;4998771;28;20320;-70
2022/01/26 06:09:52;;;;;;;51.77;10.13;;;;;;;;;;4998636;28;20213;-69
2022/01/26 06:12:18;;;;;;;82.40;14.97;;;;;;;;;;4996399;28;20677;-69
2022/01/26 06:14:43;;;;;;;67.70;12.20;;;;;;;;;;4993371;28;20186;-69
2022/01/26 06:17:09;;;;;;;70.03;13.23;;;;;;;;;;5000011;28;20216;-71
2022/01/26 06:19:35;;;;;;;80.97;15.17;;;;;;;;;;5004484;28;20653;-69
2022/01/26 06:22:01;;;;;;;71.53;13.50;;;;;;;;;;5003454;28;20192;-69
2022/01/26 06:24:27;;;;;;;59.40;12.20;;;;;;;;;;5001201;28;20279;-69
2022/01/26 06:26:53;;;;;;;66.77;12.40;;;;;;;;;;4999507;28;20791;-69
2022/01/26 06:29:19;;;;;;;71.93;12.60;;;;;;;;;;5002052;28;20491;-69
2022/01/26 06:31:45;;;;;;;68.73;12.63;;;;;;;;;;4998336;28;20223;-69
2022/01/26 06:34:12;;;;;;;75.33;14.30;;;;;;;;;;5004072;28;20299;-69
2022/01/26 06:36:43;;;;;;;65.27;12.80;;;;;;;;;;5002810;28;20215;-69
2022/01/26 06:39:10;;;;;;;71.53;13.60;;;;;;;;;;4997330;28;20287;-69
2022/01/26 06:41:37;;;;;;;90.50;16.50;;;;;;;;;;5012418;28;20243;-69
2022/01/26 06:44:14;;;;;;;71.73;13.63;;;;;;;;;;5003833;28;20288;-69
2022/01/26 06:46:53;;;;;;;127.30;21.13;;;;;;;;;;4995784;28;20230;-68
2022/01/26 06:51:48;;;;;;;106.67;18.37;;;;;;;;;;4999488;28;20372;-69
2022/01/26 06:54:14;;;;;;;96.57;16.97;;;;;;;;;;4997331;28;20243;-69
2022/01/26 06:56:40;;;;;;;99.60;17.87;;;;;;;;;;4981513;28;20678;-69
2022/01/26 06:59:06;;;;;;;142.00;22.13;;;;;;;;;;4997566;28;20591;-69
2022/01/26 07:01:32;;;;;;;99.30;16.90;;;;;;;;;;5001585;28;20204;-69
2022/01/26 07:03:58;;;;;;;73.10;12.93;;;;;;;;;;5001011;28;20181;-69
2022/01/26 07:06:24;;;;;;;62.50;12.67;;;;;;;;;;5005346;28;20734;-69
2022/01/26 07:08:50;;;;;;;68.97;13.67;;;;;;;;;;5001664;28;20678;-69
2022/01/26 07:11:16;;;;;;;68.63;13.83;;;;;;;;;;4999937;28;20215;-69
2022/01/26 07:13:42;;;;;;;98.10;17.10;;;;;;;;;;4997764;28;20181;-69
2022/01/26 07:21:52;;;;;;;142.77;21.50;;;;;;;;;;4993605;28;20211;-64
2022/01/26 07:24:18;;;;;;;73.60;12.07;;;;;;;;;;5000179;28;20557;-64
2022/01/26 07:26:46;;;;;;;78.73;13.00;;;;;;;;;;4996266;28;20252;-64
2022/01/26 07:29:12;;;;;;;86.03;15.67;;;;;;;;;;4987974;28;20562;-63
2022/01/26 07:31:42;;;;;;;124.20;19.73;;;;;;;;;;5012326;28;20217;-63
2022/01/26 07:34:12;;;;;;;110.33;18.97;;;;;;;;;;4978771;28;20188;-67
2022/01/26 07:36:38;;;;;;;91.10;14.13;;;;;;;;;;4994088;28;20607;-64
2022/01/26 07:39:11;;;;;;;107.90;16.47;;;;;;;;;;4992613;28;20184;-66
2022/01/26 07:41:37;;;;;;;70.53;13.80;;;;;;;;;;4997628;28;20317;-66
2022/01/26 07:44:03;;;;;;;78.10;14.77;;;;;;;;;;5002409;28;20343;-66
2022/01/26 07:46:30;;;;;;;113.93;19.23;;;;;;;;;;4996976;28;20235;-66
2022/01/26 07:48:56;;;;;;;81.13;14.30;;;;;;;;;;5001033;28;20233;-66
2022/01/26 07:51:22;;;;;;;131.63;19.97;;;;;;;;;;5000438;28;20244;-65
2022/01/26 07:53:48;;;;;;;129.10;20.17;;;;;;;;;;5001541;28;20360;-65
2022/01/26 07:56:14;;;;;;;88.63;16.20;;;;;;;;;;4997269;28;20205;-65
2022/01/26 07:58:41;;;;;;;101.70;17.63;;;;;;;;;;5002933;28;20639;-65
2022/01/26 08:01:07;;;;;;;75.17;12.87;;;;;;;;;;5000298;28;20203;-65
2022/01/26 08:03:33;;;;;;;121.93;19.80;;;;;;;;;;4996509;28;20815;-66
2022/01/26 08:06:00;;;;;;;157.93;23.97;;;;;;;;;;4987231;28;20217;-65
2022/01/26 08:08:27;;;;;;;96.13;16.60;;;;;;;;;;4993906;28;20243;-65
2022/01/26 08:10:53;;;;;;;93.63;16.87;;;;;;;;;;4995846;28;20649;-65
2022/01/26 08:13:19;;;;;;;150.53;24.63;;;;;;;;;;4990537;28;20281;-65
2022/01/26 08:15:44;;;;;;;77.73;14.57;;;;;;;;;;4990213;28;20209;-65
2022/01/26 08:18:10;;;;;;;116.87;19.30;;;;;;;;;;5010950;28;20227;-65
2022/01/26 08:20:36;;;;;;;115.20;19.23;;;;;;;;;;4995985;28;20200;-65
2022/01/26 08:23:02;;;;;;;94.57;16.57;;;;;;;;;;4999900;28;20196;-64
2022/01/26 08:25:29;;;;;;;123.10;20.03;;;;;;;;;;4996307;28;20223;-65
2022/01/26 08:28:21;;;;;;;73.90;13.67;;;;;;;;;;5000403;28;20630;-65
2022/01/26 08:30:44;;;;;;;98.07;16.90;;;;;;;;;;4996429;28;20753;-65
2022/01/26 08:33:10;;;;;;;145.77;22.63;;;;;;;;;;4987043;28;20223;-64
2022/01/26 08:35:36;;;;;;;91.73;16.40;;;;;;;;;;4999758;28;20197;-64
2022/01/26 08:38:03;;;;;;;87.73;15.73;;;;;;;;;;4997630;28;20195;-65
2022/01/26 08:40:30;;;;;;;145.30;22.67;;;;;;;;;;4988804;28;20194;-65
2022/01/26 08:42:56;;;;;;;139.50;22.83;;;;;;;;;;4994264;28;20228;-64
2022/01/26 08:45:23;;;;;;;94.20;16.70;;;;;;;;;;4993202;28;20795;-65
2022/01/26 08:47:49;;;;;;;106.80;18.13;;;;;;;;;;4996184;28;20204;-65
2022/01/26 08:50:16;;;;;;;115.47;19.50;;;;;;;;;;4997089;28;20201;-65
2022/01/26 08:52:42;;;;;;;157.40;25.03;;;;;;;;;;4995735;28;20196;-64
2022/01/26 08:55:10;;;;;;;137.30;22.37;;;;;;;;;;4992533;28;20189;-64
2022/01/26 08:57:35;;;;;;;135.60;22.43;;;;;;;;;;4996397;28;20177;-64
2022/01/26 09:00:02;;;;;;;128.20;21.33;;;;;;;;;;4994725;28;20191;-64
2022/01/26 09:02:27;;;;;;;137.93;21.80;;;;;;;;;;4993416;28;20181;-64
2022/01/26 09:04:53;;;;;;;122.80;19.40;;;;;;;;;;4989130;28;20199;-64
2022/01/26 09:07:20;;;;;;;230.37;33.80;;;;;;;;;;4991816;28;20266;-64
2022/01/26 09:09:47;;;;;;;98.30;17.37;;;;;;;;;;4995220;28;20189;-64
2022/01/26 09:12:14;;;;;;;102.50;17.80;;;;;;;;;;4994409;28;21445;-64
2022/01/26 09:14:40;;;;;;;190.10;28.57;;;;;;;;;;4981436;28;20192;-64
2022/01/26 09:17:08;;;;;;;104.27;13.23;;;;;;;;;;5018071;22;20323;-47
2022/01/26 09:19:34;;;;;;;147.17;18.70;;;;;;;;;;4997879;28;20671;-48
2022/01/26 09:22:05;;;;;;;147.53;18.50;;;;;;;;;;4996609;28;20195;-47
2022/01/26 09:24:32;;;;;;;289.40;36.03;;;;;;;;;;4992152;28;20320;-47
2022/01/26 09:26:59;;;;;;;58.27;7.70;;;;;;;;;;4994236;28;20207;-48
2022/01/26 09:29:25;;;;;;;210.40;26.13;;;;;;;;;;4996536;28;20259;-48
2022/01/26 09:31:51;;;;;;;136.03;17.03;;;;;;;;;;4997525;28;20225;-48
2022/01/26 09:34:21;;;;;;;142.47;17.63;;;;;;;;;;4978785;28;20200;-48
2022/01/26 09:36:47;;;;;;;103.90;13.27;;;;;;;;;;5013115;28;20181;-48
2022/01/26 09:39:14;;;;;;;165.17;20.33;;;;;;;;;;4978799;28;20189;-48
2022/01/26 09:41:40;;;;;;;113.93;14.20;;;;;;;;;;4990227;28;20228;-48
2022/01/26 09:44:06;;;;;;;126.37;15.47;;;;;;;;;;4999446;28;20204;-48
2022/01/26 09:46:33;;;;;;;154.27;19.73;;;;;;;;;;4993186;28;20663;-47
2022/01/26 09:49:01;;;;;;;226.30;28.03;;;;;;;;;;4997076;28;20268;-50
2022/01/26 09:51:27;;;;;;;153.43;19.47;;;;;;;;;;4988437;28;20212;-48
2022/01/26 09:54:04;;;;;;;141.20;17.70;;;;;;;;;;4983759;28;20227;-48
2022/01/26 09:56:30;;;;;;;99.93;12.90;;;;;;;;;;4994089;28;20181;-48
2022/01/26 09:58:57;;;;;;;74.30;9.50;;;;;;;;;;4999955;28;20194;-49
2022/01/26 10:01:23;;;;;;;90.50;11.57;;;;;;;;;;4998296;28;20192;-48
2022/01/26 10:03:50;;;;;;;165.20;20.70;;;;;;;;;;4993725;28;20204;-48
2022/01/26 10:06:26;;;;;;;158.93;19.30;;;;;;;;;;4983009;28;20193;-48
2022/01/26 10:09:44;;;;;;;236.93;28.70;;;;;;;;;;4985200;28;20238;-48
2022/01/26 10:17:30;;;;;;;99.80;12.87;;;;;;;;;;4943390;28;20201;-48
2022/01/26 10:20:00;;;;;;;129.67;16.17;;;;;;;;;;4985275;28;20565;-48
2022/01/26 10:22:27;;;;;;;137.30;17.03;;;;;;;;;;4987896;28;20863;-48
2022/01/26 10:25:01;;;;;;;162.20;20.43;;;;;;;;;;4992706;28;20209;-49
2022/01/26 10:27:35;;;;;;;101.23;12.73;;;;;;;;;;4974916;28;20287;-48
2022/01/26 10:30:05;;;;;;;160.87;20.17;;;;;;;;;;4972601;28;20193;-48
2022/01/26 10:32:34;;;;;;;174.73;21.87;;;;;;;;;;4981438;28;20500;-48
2022/01/26 10:35:01;;;;;;;150.33;19.03;;;;;;;;;;4967231;28;20651;-48
2022/01/26 10:37:27;;;;;;;219.30;26.93;;;;;;;;;;4974793;28;20212;-49
2022/01/26 10:39:56;;;;;;;138.37;17.33;;;;;;;;;;4986491;28;20181;-49
2022/01/26 10:42:24;;;;;;;108.03;13.57;;;;;;;;;;4993716;28;20179;-49
2022/01/26 10:45:06;;;;;;;105.50;13.40;;;;;;;;;;4990368;28;20677;-49
2022/01/26 10:47:36;;;;;;;127.13;16.20;;;;;;;;;;4986523;28;20177;-49
2022/01/26 10:53:06;;;;;;;102.63;13.00;;;;;;;;;;5002249;28;20259;-49
2022/01/26 10:55:33;;;;;;;149.67;18.40;;;;;;;;;;4992901;28;20184;-49
2022/01/26 10:57:59;;;;;;;291.20;36.10;;;;;;;;;;4981657;28;20405;-49
2022/01/26 11:00:25;;;;;;;95.87;12.37;;;;;;;;;;5000892;28;20719;-49
2022/01/26 11:02:52;;;;;;;89.80;11.50;;;;;;;;;;5005039;28;20263;-49
2022/01/26 11:05:19;;;;;;;91.97;11.90;;;;;;;;;;5002529;28;20189;-49
2022/01/26 11:07:45;;;;;;;75.87;9.83;;;;;;;;;;5002437;28;20200;-49
2022/01/26 11:10:12;;;;;;;169.00;20.77;;;;;;;;;;5000902;28;20216;-49
2022/01/26 11:12:39;;;;;;;101.20;12.83;;;;;;;;;;4985216;28;20219;-48
2022/01/26 11:15:16;;;;;;;237.87;29.37;;;;;;;;;;4981701;28;20242;-49
2022/01/26 11:17:44;;;;;;;200.07;24.47;;;;;;;;;;4977870;28;20197;-48
2022/01/26 11:20:29;;;;;;;240.57;31.17;;;;;;;;;;4953210;28;21337;-48
2022/01/26 11:22:56;;;;;;;196.10;24.73;;;;;;;;;;4970455;28;20270;-49
2022/01/26 11:25:23;;;;;;;253.83;31.77;;;;;;;;;;4983902;28;20512;-49
2022/01/26 11:27:50;;;;;;;179.47;22.47;;;;;;;;;;4980484;28;20549;-49
2022/01/26 11:30:21;;;;;;;229.13;29.90;;;;;;;;;;4971799;28;20190;-49
2022/01/26 11:32:54;;;;;;;76.93;10.17;;;;;;;;;;4988868;28;20189;-50
2022/01/26 11:35:21;;;;;;;159.07;20.03;;;;;;;;;;4972224;28;21025;-49
2022/01/26 11:37:52;;;;;;;196.97;25.23;;;;;;;;;;4979438;28;20192;-49
2022/01/26 11:45:38;;;;;;;200.97;26.00;;;;;;;;;;4971732;28;20195;-49
2022/01/26 11:48:23;;;;;;;98.07;12.73;;;;;;;;;;4999476;28;20545;-48
2022/01/26 11:50:58;;;;;;;166.57;21.07;;;;;;;;;;4980221;28;20946;-48
2022/01/26 11:53:26;;;;;;;219.63;27.57;;;;;;;;;;4973982;28;20204;-48
2022/01/26 11:55:59;;;;;;;279.83;35.33;;;;;;;;;;4963216;28;20272;-50
2022/01/26 11:58:40;;;;;;;177.10;22.53;;;;;;;;;;4977212;28;20196;-49
2022/01/26 12:03:59;;;;;;;226.57;28.83;;;;;;;;;;4987478;28;20546;-49
2022/01/26 12:06:39;;;;;;;125.93;16.20;;;;;;;;;;4974273;28;20189;-49
2022/01/26 12:09:07;;;;;;;148.43;18.47;;;;;;;;;;4978796;28;20197;-49
2022/01/26 12:11:33;;;;;;;84.77;11.20;;;;;;;;;;4988112;28;20219;-49
2022/01/26 12:14:00;;;;;;;132.50;16.73;;;;;;;;;;5000560;28;20213;-49
2022/01/26 12:16:33;;;;;;;122.73;16.00;;;;;;;;;;4980527;28;20863;-49
2022/01/26 12:33:01;;;;;;;374.37;47.50;;;;;;;;;;4995663;28;20465;-49
2022/01/26 12:35:52;;;;;;;117.33;14.80;;;;;;;;;;4982690;28;20185;-48
2022/01/26 12:38:33;;;;;;;125.13;15.83;;;;;;;;;;4991382;28;20654;-48
2022/01/26 12:43:55;;;;;;;136.00;17.10;;;;;;;;;;5002232;28;21144;-49
2022/01/26 12:46:23;;;;;;;88.33;11.63;;;;;;;;;;5001728;28;20208;-49
2022/01/26 12:48:50;;;;;;;72.00;9.57;;;;;;;;;;5002317;28;20183;-48
2022/01/26 12:51:16;;;;;;;123.30;15.67;;;;;;;;;;4995995;28;20282;-48
2022/01/26 12:53:42;;;;;;;98.63;12.83;;;;;;;;;;4995096;28;20243;-48
2022/01/26 12:56:11;;;;;;;110.67;14.17;;;;;;;;;;4988756;28;20189;-48
2022/01/26 12:58:37;;;;;;;105.63;13.40;;;;;;;;;;5004435;28;20248;-49
2022/01/26 13:01:11;;;;;;;61.23;8.30;;;;;;;;;;5000966;28;20212;-49
2022/01/26 13:03:39;;;;;;;188.67;23.70;;;;;;;;;;4996423;28;20209;-49
2022/01/26 13:06:13;;;;;;;150.00;18.83;;;;;;;;;;4991710;28;20272;-48
2022/01/26 13:08:41;;;;;;;92.40;11.93;;;;;;;;;;5003524;28;20672;-49
2022/01/26 13:11:07;;;;;;;115.23;14.67;;;;;;;;;;4981804;28;20672;-49
2022/01/26 13:13:34;;;;;;;95.47;12.47;;;;;;;;;;4994933;28;20373;-49
2022/01/26 13:16:11;;;;;;;81.03;10.60;;;;;;;;;;4994233;28;20181;-48
2022/01/26 13:21:19;;;;;;;102.30;13.10;;;;;;;;;;4985111;28;20678;-48
2022/01/26 13:24:13;;;;;;;72.43;9.63;;;;;;;;;;5000931;28;20227;-48
2022/01/26 13:26:48;;;;;;;53.67;7.37;;;;;;;;;;4986126;28;20271;-49
2022/01/26 13:29:26;;;;;;;128.17;16.40;;;;;;;;;;4987934;28;20366;-49
2022/01/26 13:35:13;;;;;;;104.63;13.40;;;;;;;;;;4990895;28;20219;-48
2022/01/26 13:37:59;;;;;;;71.47;9.37;;;;;;;;;;4989223;28;20272;-48
2022/01/26 13:40:41;;;;;;;122.10;15.37;;;;;;;;;;4988556;28;23846;-48
2022/01/26 13:49:17;;;;;;;72.87;9.50;;;;;;;;;;4992160;28;20211;-50
2022/01/26 13:56:52;;;;;;;101.17;13.20;;;;;;;;;;4993626;28;20680;-49
2022/01/26 13:59:26;;;;;;;123.07;16.03;;;;;;;;;;4993868;28;20276;-50
2022/01/26 14:01:53;;;;;;;129.93;16.47;;;;;;;;;;4996798;28;20248;-50
2022/01/26 14:04:19;;;;;;;84.87;11.10;;;;;;;;;;4991120;28;20209;-50
2022/01/26 14:06:46;;;;;;;82.30;10.60;;;;;;;;;;4999123;28;20591;-49
2022/01/26 14:09:12;;;;;;;99.40;12.73;;;;;;;;;;4994021;28;20189;-49
2022/01/26 14:11:38;;;;;;;209.13;25.83;;;;;;;;;;4981041;28;20232;-50
2022/01/26 14:14:05;;;;;;;197.90;24.93;;;;;;;;;;4976822;28;20202;-49
2022/01/26 14:16:38;;;;;;;92.97;12.07;;;;;;;;;;4991268;28;20256;-50
2022/01/26 14:26:45;;;;;;;124.67;15.97;;;;;;;;;;4986456;28;20657;-49
2022/01/26 14:29:20;;;;;;;106.17;13.37;;;;;;;;;;4984348;28;20189;-49
2022/01/26 14:32:05;;;;;;;80.80;10.20;;;;;;;;;;4992925;28;20572;-50
2022/01/26 14:54:08;;;;;;;193.03;22.83;;;;;;;;;;4984519;28;20255;-50
2022/01/26 15:09:40;;;;;;;146.67;18.33;;;;;;;;;;4994479;28;20228;-47
2022/01/26 15:29:57;;;;;;;84.30;14.87;;;;;;;;;;5027356;28;20739;-65
2022/01/26 15:42:26;;;;;;;132.37;20.37;;;;;;;;;;4997402;28;20670;-64
2022/01/26 15:52:50;;;;;;;135.97;21.07;;;;;;;;;;4991970;28;20872;-64
2022/01/26 16:06:40;;;;;;;120.27;17.43;;;;;;;;;;4997361;28;20568;-64
2022/01/26 16:18:26;;;;;;;114.23;18.47;;;;;;;;;;5000666;28;20731;-65
2022/01/26 16:39:28;;;;;;;187.30;25.47;;;;;;;;;;4989542;28;20245;-65
2022/01/26 17:13:10;;;;;;;92.30;14.70;;;;;;;;;;4993768;28;20258;-65
2022/01/26 18:13:04;;;;;;;99.97;16.37;;;;;;;;;;4993121;28;20209;-66
2022/01/26 18:13:18;;;;;;;97.40;15.93;;;;;;;;;;4986474;28;20271;-66
2022/01/26 18:16:21;;;;;;;114.50;18.17;;;;;;;;;;4995394;28;20236;-66
2022/01/26 18:50:54;;;;;;;72.47;12.83;;;;;;;;;;5001148;28;20223;-66
2022/01/26 18:53:20;;;;;;;106.67;16.63;;;;;;;;;;5000097;28;20185;-65
2022/01/26 18:55:46;;;;;;;221.60;29.23;;;;;;;;;;4985490;28;20219;-66
2022/01/26 18:58:12;;;;;;;81.33;13.37;;;;;;;;;;4997540;28;20629;-65
2022/01/26 19:00:38;;;;;;;80.57;12.97;;;;;;;;;;5002499;28;20245;-65
2022/01/26 19:03:04;;;;;;;96.63;13.80;;;;;;;;;;4996786;28;20646;-65
2022/01/26 19:05:30;;;;;;;80.73;12.87;;;;;;;;;;4998877;28;20189;-65
2022/01/26 19:07:57;;;;;;;76.47;12.67;;;;;;;;;;5004260;28;20538;-66
2022/01/26 19:10:24;;;;;;;119.00;17.50;;;;;;;;;;4994689;28;20203;-66
2022/01/26 19:12:50;;;;;;;64.07;10.97;;;;;;;;;;5001741;28;20261;-65
2022/01/26 19:15:23;;;;;;;82.80;14.10;;;;;;;;;;5003425;28;20186;-65
2022/01/26 19:17:56;;;;;;;137.10;20.27;;;;;;;;;;4996581;28;20217;-64
2022/01/26 19:25:48;;;;;;;116.67;16.23;;;;;;;;;;5000459;28;20255;-65
2022/01/26 19:28:21;;;;;;;84.00;14.10;;;;;;;;;;5003368;28;20193;-65
2022/01/26 19:31:55;;;;;;;137.67;20.23;;;;;;;;;;4999537;28;20240;-64
2022/01/26 19:44:51;;;;;;;64.73;11.97;;;;;;;;;;5006067;28;20657;-64
2022/01/26 19:50:42;;;;;;;70.80;12.60;;;;;;;;;;5004068;28;20233;-64
2022/01/26 19:52:48;;;;;;;84.17;14.50;;;;;;;;;;4997133;28;20255;-64
2022/01/26 19:55:14;;;;;;;164.63;23.57;;;;;;;;;;4999597;28;20642;-65
2022/01/26 19:57:42;;;;;;;55.13;11.63;;;;;;;;;;5000653;28;20267;-64
2022/01/26 20:00:08;;;;;;;80.87;14.13;;;;;;;;;;5006679;28;20595;-64
2022/01/26 20:02:34;;;;;;;71.17;11.33;;;;;;;;;;5003429;28;20243;-64
2022/01/26 20:05:00;;;;;;;68.97;12.30;;;;;;;;;;4999298;28;20189;-64
2022/01/26 20:07:29;;;;;;;142.87;20.97;;;;;;;;;;5001452;28;20205;-64
2022/01/26 20:09:59;;;;;;;95.97;15.43;;;;;;;;;;4999678;28;20177;-64
2022/01/26 20:12:34;;;;;;;69.60;12.70;;;;;;;;;;4993734;28;20209;-64
2022/01/26 20:15:00;;;;;;;80.80;13.60;;;;;;;;;;5020920;28;20545;-64
2022/01/26 20:17:27;;;;;;;102.03;16.03;;;;;;;;;;5002536;28;20220;-64
2022/01/26 20:19:53;;;;;;;107.20;16.57;;;;;;;;;;4999170;28;20247;-64
2022/01/26 20:22:19;;;;;;;62.30;11.33;;;;;;;;;;5002315;28;20522;-64
2022/01/26 20:24:45;;;;;;;84.50;13.83;;;;;;;;;;5001542;28;20189;-64
2022/01/26 20:27:12;;;;;;;83.17;14.00;;;;;;;;;;4996409;28;20208;-64
2022/01/26 20:29:45;;;;;;;67.50;12.53;;;;;;;;;;5003635;28;20208;-65
2022/01/26 20:32:11;;;;;;;64.60;11.60;;;;;;;;;;4995906;28;20312;-64
2022/01/26 20:34:37;;;;;;;80.67;13.60;;;;;;;;;;5019895;28;20696;-64
2022/01/26 20:37:03;;;;;;;68.77;12.13;;;;;;;;;;5001576;28;20269;-64
2022/01/26 20:39:29;;;;;;;81.73;13.33;;;;;;;;;;5000479;28;20192;-64
2022/01/26 20:41:55;;;;;;;69.87;12.03;;;;;;;;;;4993478;28;20176;-64
2022/01/26 20:44:21;;;;;;;121.87;18.40;;;;;;;;;;5002873;28;20276;-64
2022/01/26 20:46:47;;;;;;;113.93;18.07;;;;;;;;;;5004252;28;20233;-64
2022/01/26 20:49:13;;;;;;;102.33;16.10;;;;;;;;;;4994019;28;20244;-64
2022/01/26 20:51:39;;;;;;;64.50;11.83;;;;;;;;;;4997450;28;20864;-64